createdAt,value
2022-07-31T00:01:02.365Z,5.00
2022-07-31T00:03:30.413Z,4.80
2022-07-31T00:05:58.389Z,5.50
2022-07-31T00:08:26.917Z,4.10
2022-07-31T00:10:55.222Z,4.30
2022-07-31T00:13:57.237Z,4.60
2022-07-31T00:16:11.913Z,4.40
2022-07-31T00:18:40.433Z,6.70
2022-07-31T00:21:08.727Z,6.30
2022-07-31T00:23:36.833Z,5.00
2022-07-31T00:26:05.146Z,6.00
2022-07-31T00:28:33.093Z,6.20
2022-07-31T00:31:01.398Z,6.50
2022-07-31T00:33:29.617Z,6.30
2022-07-31T00:35:57.573Z,5.00
2022-07-31T00:38:27.616Z,5.60
2022-07-31T00:40:55.942Z,4.80
2022-07-31T00:43:27.541Z,7.70
2022-07-31T00:45:59.500Z,4.30
2022-07-31T00:48:28.039Z,4.90
2022-07-31T00:50:56.838Z,4.40
2022-07-31T00:53:25.487Z,5.60
2022-07-31T00:55:54.062Z,5.60
2022-07-31T00:58:21.944Z,5.70
2022-07-31T01:00:51.388Z,3.60
2022-07-31T01:03:19.546Z,4.30
2022-07-31T01:05:47.586Z,4.50
2022-07-31T01:08:16.148Z,5.10
2022-07-31T01:10:58.218Z,5.30
2022-07-31T01:13:35.081Z,3.80
2022-07-31T01:16:06.487Z,3.40
2022-07-31T01:18:37.363Z,3.40
2022-07-31T01:21:12.395Z,3.00
2022-07-31T01:23:54.340Z,3.00
2022-07-31T01:26:51.068Z,2.80
2022-07-31T01:29:25.773Z,3.10
2022-07-31T01:31:54.414Z,3.30
2022-07-31T01:34:42.969Z,3.10
2022-07-31T01:37:39.833Z,3.20
2022-07-31T01:40:20.494Z,3.70
2022-07-31T01:42:59.034Z,3.10
2022-07-31T01:45:29.086Z,3.50
2022-07-31T01:47:58.505Z,3.50
2022-07-31T01:50:42.578Z,3.50
2022-07-31T01:53:16.555Z,3.30
2022-07-31T01:56:02.798Z,3.40
2022-07-31T01:58:43.080Z,4.00
2022-07-31T02:01:27.939Z,4.00
2022-07-31T02:03:57.623Z,3.80
2022-07-31T02:06:30.446Z,3.90
2022-07-31T02:09:00.997Z,4.00
2022-07-31T02:11:29.816Z,4.50
2022-07-31T02:13:59.998Z,3.80
2022-07-31T02:16:32.479Z,5.60
2022-07-31T02:19:09.153Z,4.40
2022-07-31T02:21:37.373Z,4.40
2022-07-31T02:24:07.500Z,4.30
2022-07-31T02:26:38.065Z,4.60
2022-07-31T02:29:20.071Z,4.30
2022-07-31T02:32:03.328Z,4.40
2022-07-31T02:34:35.010Z,7.00
2022-07-31T02:37:05.009Z,4.40
2022-07-31T02:39:36.065Z,4.30
2022-07-31T02:42:05.929Z,4.40
2022-07-31T02:44:34.929Z,4.20
2022-07-31T02:47:05.474Z,4.30
2022-07-31T02:49:35.048Z,3.70
2022-07-31T02:52:05.424Z,5.10
2022-07-31T02:54:35.611Z,4.10
2022-07-31T02:57:04.009Z,6.70
2022-07-31T02:59:32.329Z,8.90
2022-07-31T03:02:01.327Z,6.50
2022-07-31T03:04:30.849Z,4.20
2022-07-31T03:07:00.827Z,9.10
2022-07-31T03:09:30.764Z,5.70
2022-07-31T03:12:17.410Z,10.60
2022-07-31T03:14:46.974Z,5.60
2022-07-31T03:17:16.554Z,6.50
2022-07-31T03:19:44.784Z,5.00
2022-07-31T03:22:15.407Z,4.90
2022-07-31T03:24:44.718Z,6.40
2022-07-31T03:27:12.734Z,5.10
2022-07-31T03:29:43.269Z,5.80
2022-07-31T03:32:12.423Z,4.90
2022-07-31T03:34:41.006Z,5.60
2022-07-31T03:37:10.591Z,7.00
2022-07-31T03:39:39.232Z,5.20
2022-07-31T03:42:12.994Z,5.00
2022-07-31T03:44:48.534Z,5.20
2022-07-31T03:47:17.051Z,5.70
2022-07-31T03:49:46.098Z,5.90
2022-07-31T03:52:15.588Z,8.00
2022-07-31T03:54:44.369Z,6.30
2022-07-31T03:57:18.759Z,5.70
2022-07-31T03:59:54.581Z,5.70
2022-07-31T04:02:22.838Z,5.90
2022-07-31T04:04:55.710Z,5.40
2022-07-31T04:07:24.602Z,7.00
2022-07-31T04:09:52.732Z,6.30
2022-07-31T04:12:21.036Z,6.50
2022-07-31T04:14:49.683Z,5.30
2022-07-31T04:17:18.692Z,8.80
2022-07-31T04:19:49.627Z,5.70
2022-07-31T04:24:45.901Z,6.00
2022-07-31T04:27:49.109Z,6.10
2022-07-31T04:30:19.008Z,5.10
2022-07-31T04:32:47.949Z,8.90
2022-07-31T04:35:22.399Z,6.40
2022-07-31T04:37:50.917Z,9.70
2022-07-31T04:40:21.779Z,8.30
2022-07-31T04:42:49.739Z,5.40
2022-07-31T04:45:17.805Z,5.30
2022-07-31T04:47:45.819Z,8.30
2022-07-31T04:50:14.433Z,5.10
2022-07-31T04:52:56.234Z,5.70
2022-07-31T04:55:25.156Z,6.90
2022-07-31T04:57:53.510Z,6.70
2022-07-31T05:00:22.363Z,6.40
2022-07-31T05:02:50.538Z,10.10
2022-07-31T05:05:19.339Z,6.20
2022-07-31T05:07:48.158Z,7.00
2022-07-31T05:10:40.189Z,9.30
2022-07-31T05:13:08.282Z,6.50
2022-07-31T05:15:36.366Z,7.20
2022-07-31T05:18:07.759Z,7.50
2022-07-31T05:20:47.961Z,7.60
2022-07-31T05:23:34.086Z,7.90
2022-07-31T05:26:10.709Z,8.10
2022-07-31T05:28:39.501Z,8.10
2022-07-31T05:31:09.870Z,10.10
2022-07-31T05:33:39.698Z,8.40
2022-07-31T05:36:08.457Z,9.10
2022-07-31T05:38:37.305Z,10.90
2022-07-31T05:41:23.980Z,8.30
2022-07-31T05:44:10.641Z,7.60
2022-07-31T05:46:42.576Z,9.80
2022-07-31T05:49:11.150Z,7.90
2022-07-31T05:51:43.229Z,8.00
2022-07-31T05:54:11.534Z,8.00
2022-07-31T05:56:58.220Z,9.40
2022-07-31T05:59:35.030Z,7.40
2022-07-31T06:04:38.849Z,11.90
2022-07-31T06:07:06.982Z,7.60
2022-07-31T06:09:35.175Z,7.20
2022-07-31T06:12:03.825Z,6.90
2022-07-31T06:14:32.316Z,7.00
2022-07-31T06:17:43.733Z,6.90
2022-07-31T06:20:22.940Z,6.90
2022-07-31T06:22:51.265Z,7.10
2022-07-31T06:25:20.842Z,6.70
2022-07-31T06:27:55.018Z,8.70
2022-07-31T06:30:28.098Z,6.80
2022-07-31T06:32:56.505Z,11.40
2022-07-31T06:35:25.125Z,6.80
2022-07-31T06:38:11.825Z,8.50
2022-07-31T06:40:59.854Z,7.20
2022-07-31T06:43:36.512Z,10.50
2022-07-31T06:46:27.846Z,6.80
2022-07-31T06:49:33.863Z,5.90
2022-07-31T06:52:05.587Z,5.30
2022-07-31T06:54:34.553Z,5.20
2022-07-31T06:57:03.439Z,5.30
2022-07-31T06:59:40.028Z,5.70
2022-07-31T07:02:10.049Z,4.80
2022-07-31T07:05:04.443Z,7.00
2022-07-31T07:07:26.878Z,8.00
2022-07-31T07:10:00.506Z,6.30
2022-07-31T07:12:54.334Z,4.60
2022-07-31T07:15:23.319Z,5.80
2022-07-31T07:17:52.023Z,5.10
2022-07-31T07:20:31.043Z,4.10
2022-07-31T07:22:59.113Z,4.90
2022-07-31T07:25:36.860Z,6.70
2022-07-31T07:28:06.191Z,4.30
2022-07-31T07:30:34.947Z,4.80
2022-07-31T07:33:05.436Z,4.50
2022-07-31T07:35:34.230Z,4.10
2022-07-31T07:38:07.215Z,4.30
2022-07-31T07:40:38.431Z,3.80
2022-07-31T07:43:06.691Z,4.60
2022-07-31T07:45:35.341Z,4.00
2022-07-31T07:48:06.470Z,3.50
2022-07-31T07:51:06.047Z,4.20
2022-07-31T07:53:48.988Z,2.90
2022-07-31T07:56:20.128Z,3.30
2022-07-31T07:59:06.948Z,3.30
2022-07-31T08:02:21.441Z,4.10
2022-07-31T08:04:50.015Z,3.70
2022-07-31T08:07:42.853Z,3.70
2022-07-31T08:10:34.080Z,3.60
2022-07-31T08:13:09.343Z,3.00
2022-07-31T08:15:55.753Z,2.90
2022-07-31T08:18:28.908Z,3.40
2022-07-31T08:20:57.436Z,2.70
2022-07-31T08:23:25.379Z,3.50
2022-07-31T08:25:53.944Z,3.90
2022-07-31T08:28:27.065Z,3.60
2022-07-31T08:30:55.439Z,4.20
2022-07-31T08:33:24.765Z,4.60
2022-07-31T08:35:59.618Z,3.10
2022-07-31T08:38:28.845Z,3.10
2022-07-31T08:41:28.561Z,3.20
2022-07-31T08:44:02.222Z,3.40
2022-07-31T08:46:37.663Z,3.00
2022-07-31T08:49:07.800Z,2.70
2022-07-31T08:51:52.729Z,2.30
2022-07-31T08:54:44.090Z,2.70
2022-07-31T08:57:13.185Z,2.80
2022-07-31T08:59:42.377Z,3.70
2022-07-31T09:02:12.422Z,2.40
2022-07-31T09:04:53.002Z,5.20
2022-07-31T09:07:22.380Z,2.80
2022-07-31T09:09:52.274Z,2.60
2022-07-31T09:12:33.609Z,2.60
2022-07-31T09:15:21.159Z,4.20
2022-07-31T09:17:54.116Z,2.30
2022-07-31T09:20:26.395Z,2.90
2022-07-31T09:23:06.852Z,2.80
2022-07-31T09:25:36.266Z,2.60
2022-07-31T09:28:07.438Z,4.30
2022-07-31T09:30:36.257Z,2.70
2022-07-31T09:36:25.646Z,2.60
2022-07-31T09:39:04.143Z,2.40
2022-07-31T09:41:55.804Z,5.00
2022-07-31T09:44:42.373Z,2.90
2022-07-31T09:47:39.865Z,4.10
2022-07-31T09:50:08.727Z,2.80
2022-07-31T09:52:37.161Z,2.90
2022-07-31T09:55:16.058Z,2.90
2022-07-31T10:00:26.307Z,4.00
2022-07-31T10:02:56.151Z,5.80
2022-07-31T10:05:27.633Z,3.00
2022-07-31T10:08:00.243Z,3.00
2022-07-31T10:10:50.151Z,3.60
2022-07-31T10:13:28.162Z,4.50
2022-07-31T10:16:01.256Z,2.70
2022-07-31T10:18:53.206Z,3.00
2022-07-31T10:22:07.015Z,4.40
2022-07-31T10:24:43.443Z,3.30
2022-07-31T10:27:14.491Z,2.70
2022-07-31T10:29:44.560Z,3.10
2022-07-31T10:32:13.335Z,2.80
2022-07-31T10:35:08.014Z,3.30
2022-07-31T10:38:38.498Z,3.20
2022-07-31T10:41:43.459Z,2.60
2022-07-31T10:44:34.397Z,3.60
2022-07-31T10:47:35.843Z,3.90
2022-07-31T10:50:22.584Z,3.90
2022-07-31T10:53:11.224Z,5.30
2022-07-31T10:56:03.066Z,5.90
2022-07-31T10:58:56.680Z,2.70
2022-07-31T11:02:00.497Z,2.80
2022-07-31T11:04:46.615Z,7.30
2022-07-31T11:07:19.893Z,4.90
2022-07-31T11:10:22.226Z,7.20
2022-07-31T11:13:11.283Z,8.30
2022-07-31T11:16:15.019Z,6.00
2022-07-31T11:18:57.987Z,2.70
2022-07-31T11:21:39.749Z,7.20
2022-07-31T11:24:19.790Z,2.90
2022-07-31T11:26:50.733Z,2.70
2022-07-31T11:30:01.944Z,4.50
2022-07-31T11:32:25.988Z,2.60
2022-07-31T11:34:56.192Z,2.50
2022-07-31T11:37:39.485Z,3.00
2022-07-31T11:40:14.832Z,2.00
2022-07-31T11:42:46.148Z,1.80
2022-07-31T11:45:16.862Z,3.60
2022-07-31T11:48:12.262Z,1.80
2022-07-31T11:50:43.733Z,2.00
2022-07-31T11:53:12.477Z,3.10
2022-07-31T11:55:48.932Z,4.50
2022-07-31T11:58:19.804Z,5.40
2022-07-31T12:00:52.352Z,2.00
2022-07-31T12:03:25.038Z,1.60
2022-07-31T12:05:53.940Z,2.20
2022-07-31T12:08:24.219Z,3.40
2022-07-31T12:10:54.446Z,5.70
2022-07-31T12:13:23.746Z,1.40
2022-07-31T12:15:59.434Z,2.10
2022-07-31T12:18:29.482Z,3.40
2022-07-31T12:21:03.197Z,1.60
2022-07-31T12:24:10.704Z,1.40
2022-07-31T12:26:39.011Z,1.50
2022-07-31T12:29:09.740Z,3.60
2022-07-31T12:31:50.328Z,1.40
2022-07-31T12:34:41.199Z,1.70
2022-07-31T12:37:14.513Z,2.10
2022-07-31T12:40:00.905Z,1.50
2022-07-31T12:42:35.317Z,1.50
2022-07-31T12:45:18.493Z,3.30
2022-07-31T12:47:53.980Z,1.70
2022-07-31T12:50:24.985Z,1.70
2022-07-31T12:52:54.709Z,1.50
2022-07-31T12:55:22.899Z,1.70
2022-07-31T12:57:52.331Z,1.70
2022-07-31T13:00:23.483Z,5.20
2022-07-31T13:02:56.949Z,2.70
2022-07-31T13:05:25.483Z,2.10
2022-07-31T13:07:54.288Z,2.20
2022-07-31T13:10:24.622Z,2.40
2022-07-31T13:12:53.754Z,2.40
2022-07-31T13:15:29.940Z,2.30
2022-07-31T13:18:01.904Z,1.80
2022-07-31T13:20:31.076Z,1.60
2022-07-31T13:22:59.745Z,1.60
2022-07-31T13:25:31.249Z,3.20
2022-07-31T13:28:00.471Z,1.20
2022-07-31T13:30:29.023Z,0.80
2022-07-31T13:32:57.311Z,1.20
2022-07-31T13:35:28.323Z,4.60
2022-07-31T13:37:57.302Z,2.00
2022-07-31T13:40:44.637Z,3.90
2022-07-31T13:43:13.447Z,2.70
2022-07-31T13:45:42.125Z,4.00
2022-07-31T13:48:10.617Z,4.10
2022-07-31T13:50:42.199Z,2.10
2022-07-31T13:53:10.395Z,1.30
2022-07-31T13:55:38.674Z,3.80
2022-07-31T13:58:07.660Z,1.20
2022-07-31T14:00:35.875Z,1.30
2022-07-31T14:03:03.982Z,8.20
2022-07-31T14:05:39.882Z,1.60
2022-07-31T14:08:30.692Z,1.00
2022-07-31T14:10:57.358Z,1.20
2022-07-31T14:13:25.576Z,2.40
2022-07-31T14:15:53.579Z,1.00
2022-07-31T14:18:23.724Z,1.20
2022-07-31T14:20:52.616Z,3.90
2022-07-31T14:23:33.202Z,5.70
2022-07-31T14:26:03.045Z,1.00
2022-07-31T14:28:31.368Z,1.30
2022-07-31T14:30:59.991Z,5.20
2022-07-31T14:33:28.181Z,2.00
2022-07-31T14:35:56.200Z,1.30
2022-07-31T14:38:27.417Z,2.10
2022-07-31T14:40:56.148Z,2.60
2022-07-31T14:43:24.325Z,1.80
2022-07-31T14:45:52.409Z,2.10
2022-07-31T14:48:22.048Z,5.70
2022-07-31T14:50:50.523Z,1.50
2022-07-31T14:53:18.729Z,1.30
2022-07-31T14:55:46.971Z,3.50
2022-07-31T14:58:14.861Z,1.80
2022-07-31T15:00:43.621Z,2.40
2022-07-31T15:03:12.254Z,3.00
2022-07-31T15:06:41.932Z,1.30
2022-07-31T15:08:30.267Z,2.30
2022-07-31T15:10:58.239Z,3.10
2022-07-31T15:13:26.423Z,2.20
2022-07-31T15:15:54.767Z,3.20
2022-07-31T15:18:25.716Z,2.70
2022-07-31T15:20:54.431Z,1.90
2022-07-31T15:23:22.650Z,1.50
2022-07-31T15:25:50.881Z,1.80
2022-07-31T15:28:18.725Z,1.90
2022-07-31T15:30:46.953Z,2.10
2022-07-31T15:33:15.797Z,2.10
2022-07-31T15:35:43.911Z,2.70
2022-07-31T15:38:11.951Z,1.70
2022-07-31T15:40:40.576Z,1.90
2022-07-31T15:43:08.710Z,2.50
2022-07-31T15:45:37.208Z,4.20
2022-07-31T15:48:09.820Z,4.60
2022-07-31T15:50:38.648Z,5.60
2022-07-31T15:53:06.606Z,1.50
2022-07-31T15:55:34.685Z,2.70
2022-07-31T15:58:02.850Z,1.70
2022-07-31T16:00:31.208Z,1.40
2022-07-31T16:02:59.875Z,1.60
2022-07-31T16:05:36.886Z,1.40
2022-07-31T16:08:30.537Z,1.40
2022-07-31T16:10:57.202Z,1.90
2022-07-31T16:13:25.422Z,1.00
2022-07-31T16:15:53.993Z,1.10
2022-07-31T16:18:22.183Z,1.40
2022-07-31T16:20:50.112Z,3.30
2022-07-31T16:23:18.510Z,1.90
2022-07-31T16:25:46.569Z,1.30
2022-07-31T16:28:15.117Z,3.00
2022-07-31T16:30:45.715Z,0.80
2022-07-31T16:33:14.303Z,1.00
2022-07-31T16:35:42.323Z,1.70
2022-07-31T16:38:10.533Z,2.60
2022-07-31T16:40:38.896Z,4.00
2022-07-31T16:43:49.626Z,5.00
2022-07-31T16:45:56.798Z,1.80
2022-07-31T16:48:25.079Z,2.10
2022-07-31T16:50:54.837Z,0.50
2022-07-31T16:54:11.441Z,0.50
2022-07-31T16:56:13.574Z,0.50
2022-07-31T16:58:41.924Z,0.60
2022-07-31T17:01:58.064Z,2.80
2022-07-31T17:04:03.519Z,3.10
2022-07-31T17:06:37.514Z,3.90
2022-07-31T17:09:16.962Z,1.60
2022-07-31T17:11:50.697Z,1.40
2022-07-31T17:14:20.695Z,0.70
2022-07-31T17:16:50.113Z,1.50
2022-07-31T17:19:41.108Z,1.10
2022-07-31T17:24:39.940Z,0.60
2022-07-31T17:27:09.965Z,0.70
2022-07-31T17:29:39.352Z,0.70
2022-07-31T17:32:07.894Z,2.20
2022-07-31T17:34:39.993Z,1.10
2022-07-31T17:37:08.826Z,3.30
2022-07-31T17:39:37.459Z,1.70
2022-07-31T17:42:05.937Z,2.90
2022-07-31T17:44:39.972Z,1.00
2022-07-31T17:47:08.950Z,0.50
2022-07-31T17:49:38.121Z,9.00
2022-07-31T17:52:06.952Z,1.70
2022-07-31T17:54:35.265Z,4.80
2022-07-31T17:57:05.049Z,1.00
2022-07-31T17:59:33.684Z,3.00
2022-07-31T18:02:04.249Z,2.40
2022-07-31T18:04:34.831Z,2.70
2022-07-31T18:07:05.615Z,0.90
2022-07-31T18:09:34.160Z,1.30
2022-07-31T18:12:03.192Z,0.80
2022-07-31T18:14:31.463Z,3.20
2022-07-31T18:16:59.858Z,0.80
2022-07-31T18:19:28.559Z,1.70
2022-07-31T18:21:57.120Z,2.00
2022-07-31T18:24:25.720Z,0.70
2022-07-31T18:26:54.084Z,1.10
2022-07-31T18:29:22.746Z,3.20
2022-07-31T18:31:51.214Z,3.20
2022-07-31T18:34:19.377Z,2.70
2022-07-31T18:36:54.642Z,1.60
2022-07-31T18:39:24.370Z,2.10
2022-07-31T18:41:53.088Z,1.30
2022-07-31T18:44:22.061Z,0.90
2022-07-31T18:46:50.732Z,2.30
2022-07-31T18:50:58.699Z,2.50
2022-07-31T18:54:38.629Z,1.30
2022-07-31T18:57:07.911Z,2.00
2022-07-31T18:59:36.625Z,1.90
2022-07-31T19:02:06.101Z,0.90
2022-07-31T19:04:40.025Z,1.10
2022-07-31T19:07:08.042Z,1.20
2022-07-31T19:09:36.441Z,0.90
2022-07-31T19:12:08.228Z,2.40
2022-07-31T19:14:37.019Z,3.70
2022-07-31T19:17:07.035Z,2.60
2022-07-31T19:19:52.768Z,1.20
2022-07-31T19:22:23.647Z,3.10
2022-07-31T19:24:52.299Z,1.30
2022-07-31T19:27:21.239Z,4.00
2022-07-31T19:29:49.458Z,2.30
2022-07-31T19:32:17.556Z,0.80
2022-07-31T19:34:48.028Z,1.30
2022-07-31T19:37:18.465Z,1.10
2022-07-31T19:39:47.125Z,1.30
2022-07-31T19:42:15.109Z,1.10
2022-07-31T19:44:43.707Z,5.50
2022-07-31T19:47:12.067Z,1.30
2022-07-31T19:49:41.288Z,1.80
2022-07-31T19:52:09.907Z,1.20
2022-07-31T19:54:40.044Z,4.10
2022-07-31T19:57:08.023Z,4.30
2022-07-31T19:59:35.924Z,2.90
2022-07-31T20:02:04.462Z,4.20
2022-07-31T20:04:33.070Z,2.10
2022-07-31T20:07:00.972Z,1.20
2022-07-31T20:09:31.210Z,1.00
2022-07-31T20:11:59.623Z,4.90
2022-07-31T20:14:27.976Z,4.60
2022-07-31T20:16:55.940Z,2.20
2022-07-31T20:19:24.489Z,2.10
2022-07-31T20:21:52.592Z,3.30
2022-07-31T20:24:20.513Z,2.70
2022-07-31T20:26:48.942Z,1.50
2022-07-31T20:29:17.059Z,3.10
2022-07-31T20:31:45.305Z,1.40
2022-07-31T20:34:13.818Z,1.30
2022-07-31T20:36:42.419Z,1.50
2022-07-31T20:39:10.254Z,1.50
2022-07-31T20:41:38.547Z,2.20
2022-07-31T20:44:07.234Z,6.40
2022-07-31T20:46:35.245Z,1.40
2022-07-31T20:49:04.189Z,2.10
2022-07-31T20:51:32.233Z,2.60
2022-07-31T20:54:01.053Z,1.70
2022-07-31T20:56:29.305Z,1.30
2022-07-31T20:58:57.271Z,1.30
2022-07-31T21:01:26.424Z,1.40
2022-07-31T21:03:55.088Z,3.10
2022-07-31T21:06:23.231Z,1.20
2022-07-31T21:08:51.288Z,7.60
2022-07-31T21:11:20.464Z,1.00
2022-07-31T21:13:48.667Z,2.90
2022-07-31T21:16:18.471Z,2.00
2022-07-31T21:18:48.001Z,1.30
2022-07-31T21:21:16.018Z,1.50
2022-07-31T21:23:46.204Z,1.20
2022-07-31T21:26:16.230Z,1.70
2022-07-31T21:28:45.510Z,2.90
2022-07-31T21:31:13.617Z,5.10
2022-07-31T21:33:41.962Z,3.00
2022-07-31T21:36:12.659Z,1.30
2022-07-31T21:38:42.250Z,1.10
2022-07-31T21:41:10.552Z,1.40
2022-07-31T21:43:58.166Z,3.70
2022-07-31T21:46:28.998Z,2.20
2022-07-31T21:51:25.887Z,4.40
2022-07-31T21:53:54.614Z,1.20
2022-07-31T21:56:22.673Z,4.60
2022-07-31T21:58:51.115Z,2.00
2022-07-31T22:01:19.401Z,1.10
2022-07-31T22:03:47.732Z,2.40
2022-07-31T22:06:34.263Z,2.00
2022-07-31T22:09:11.206Z,1.60
2022-07-31T22:11:39.522Z,3.20
2022-07-31T22:14:08.997Z,3.80
2022-07-31T22:16:38.089Z,1.40
2022-07-31T22:19:24.189Z,1.90
2022-07-31T22:21:53.006Z,2.40
2022-07-31T22:24:21.429Z,1.40
2022-07-31T22:27:11.813Z,3.20
2022-07-31T22:29:43.479Z,2.00
2022-07-31T22:32:12.178Z,4.00
2022-07-31T22:34:40.444Z,1.30
2022-07-31T22:37:09.911Z,1.20
2022-07-31T22:39:39.785Z,1.40
2022-07-31T22:42:09.355Z,1.80
2022-07-31T22:44:38.774Z,1.40
2022-07-31T22:47:07.481Z,3.20
2022-07-31T22:49:36.891Z,1.80
2022-07-31T22:52:07.382Z,2.30
2022-07-31T22:54:35.469Z,1.70
2022-07-31T22:57:03.633Z,1.50
2022-07-31T22:59:31.733Z,1.80
2022-07-31T23:02:04.362Z,2.40
2022-07-31T23:04:33.690Z,2.30
2022-07-31T23:07:01.939Z,5.70
2022-07-31T23:09:31.258Z,4.60
2022-07-31T23:12:00.437Z,6.80
2022-07-31T23:14:30.365Z,2.80
2022-07-31T23:16:59.624Z,2.80
2022-07-31T23:19:28.047Z,2.20
2022-07-31T23:21:56.284Z,3.50
2022-07-31T23:24:24.177Z,2.40
2022-07-31T23:26:52.274Z,4.10
2022-07-31T23:29:20.354Z,2.50
2022-07-31T23:31:48.984Z,5.30
2022-07-31T23:34:17.953Z,2.90
2022-07-31T23:36:46.231Z,3.80
2022-07-31T23:39:14.613Z,3.60
2022-07-31T23:42:00.801Z,6.10
2022-07-31T23:44:29.061Z,3.90
2022-07-31T23:46:57.346Z,3.80
2022-07-31T23:49:25.358Z,4.00
2022-07-31T23:51:53.432Z,4.10
2022-07-31T23:54:21.547Z,3.60
2022-07-31T23:56:49.451Z,7.80
2022-07-31T23:59:17.593Z,3.50
